Time;durP1;ratioP1;P1;durP2;ratioP2;P2;SDS_P1;SDS_P2;PMS_P1;PMS_P2;Temp;Humidity;BMP_temperature;BMP_pressure;BME280_temperature;BME280_humidity;BME280_pressure;Samples;Min_cycle;Max_cycle;Signal;HPM_P1;HPM_P2
2022/04/11 00:00:18;;;;;;;38.20;24.70;;;;;;;2.06;100.00;99162.98;105319;1268;62104;-72
2022/04/11 00:03:04;;;;;;;33.60;24.30;;;;;;;2.07;100.00;99163.98;105335;1268;73240;-73
2022/04/11 00:05:30;;;;;;;38.10;25.10;;;;;;;2.08;100.00;99168.17;105336;1268;62039;-72
2022/04/11 00:07:57;;;;;;;43.90;30.00;;;;;;;2.08;100.00;99170.27;105355;1268;62051;-71
2022/04/11 00:10:23;;;;;;;41.10;27.30;;;;;;;2.09;100.00;99169.88;105278;1268;62081;-72
2022/04/11 00:12:49;;;;;;;35.60;25.20;;;;;;;2.10;100.00;99168.81;105283;1268;62103;-71
2022/04/11 00:15:16;;;;;;;36.90;24.00;;;;;;;2.11;100.00;99168.79;105307;1268;62164;-73
2022/04/11 00:17:43;;;;;;;36.80;24.90;;;;;;;2.11;100.00;99169.30;105322;1268;62067;-72
2022/04/11 00:20:10;;;;;;;33.10;22.90;;;;;;;2.11;100.00;99170.51;105300;1268;62068;-71
2022/04/11 00:22:37;;;;;;;31.10;21.80;;;;;;;2.14;100.00;99172.35;105318;1268;77148;-72
2022/04/11 00:25:04;;;;;;;32.40;21.90;;;;;;;2.17;100.00;99171.04;105307;1268;67469;-72
2022/04/11 00:27:31;;;;;;;32.00;21.00;;;;;;;2.20;100.00;99175.34;105233;1268;74342;-72
2022/04/11 00:29:57;;;;;;;28.20;20.50;;;;;;;2.22;100.00;99172.13;105312;1268;62098;-73
2022/04/11 00:32:24;;;;;;;30.30;20.10;;;;;;;2.24;100.00;99173.83;105353;1268;62042;-72
2022/04/11 00:34:50;;;;;;;27.60;20.40;;;;;;;2.26;100.00;99175.34;105340;1268;61962;-73
2022/04/11 00:37:18;;;;;;;33.30;22.20;;;;;;;2.28;100.00;99169.68;105326;1268;68551;-73
2022/04/11 00:39:44;;;;;;;26.10;18.70;;;;;;;2.28;100.00;99171.06;105313;1268;62069;-72
2022/04/11 00:42:14;;;;;;;28.30;17.10;;;;;;;2.30;100.00;99169.10;105368;1268;62188;-72
2022/04/11 00:44:41;;;;;;;24.90;17.50;;;;;;;2.30;100.00;99166.45;105401;1268;62069;-71
2022/04/11 00:47:08;;;;;;;26.20;17.20;;;;;;;2.31;100.00;99169.75;105389;1268;77040;-73
2022/04/11 00:49:34;;;;;;;22.00;16.10;;;;;;;2.31;100.00;99168.53;105385;1268;62094;-71
2022/04/11 00:52:01;;;;;;;22.60;15.00;;;;;;;2.33;100.00;99171.98;105365;1268;62166;-71
2022/04/11 00:54:31;;;;;;;20.50;15.10;;;;;;;2.34;100.00;99172.65;105475;1268;62011;-71
2022/04/11 00:56:58;;;;;;;20.30;14.50;;;;;;;2.35;100.00;99175.26;105296;1268;241927;-73
2022/04/11 00:59:25;;;;;;;21.70;15.50;;;;;;;2.35;100.00;99174.00;105715;1269;76620;-72
2022/04/11 01:01:52;;;;;;;27.70;16.60;;;;;;;2.37;100.00;99175.88;105496;1268;70205;-73
2022/04/11 01:04:26;;;;;;;20.50;16.20;;;;;;;2.37;100.00;99177.63;105143;1269;74345;-73
2022/04/11 01:06:55;;;;;;;21.90;15.40;;;;;;;2.37;100.00;99181.49;105110;1269;62229;-73
2022/04/11 01:09:26;;;;;;;22.10;15.80;;;;;;;2.36;100.00;99179.78;105522;1268;62243;-73
2022/04/11 01:11:53;;;;;;;19.60;14.70;;;;;;;2.35;100.00;99178.77;105467;1267;75916;-73
2022/04/11 01:14:20;;;;;;;20.00;14.50;;;;;;;2.35;100.00;99178.92;105375;1269;69779;-73
2022/04/11 01:16:51;;;;;;;21.20;15.00;;;;;;;2.36;100.00;99180.27;105087;1269;73334;-73
2022/04/11 01:19:19;;;;;;;19.80;14.90;;;;;;;2.38;100.00;99180.94;105394;1268;62141;-71
2022/04/11 01:21:49;;;;;;;20.20;14.50;;;;;;;2.39;100.00;99184.06;105332;1268;62149;-73
2022/04/11 01:24:20;;;;;;;19.60;13.80;;;;;;;2.40;100.00;99183.16;105352;1268;74379;-71
2022/04/11 01:26:47;;;;;;;19.50;13.30;;;;;;;2.41;100.00;99186.08;105384;1268;69294;-72
2022/04/11 01:29:16;;;;;;;19.00;12.10;;;;;;;2.42;100.00;99185.02;105421;1268;72386;-72
2022/04/11 01:31:43;;;;;;;16.20;11.50;;;;;;;2.45;100.00;99182.84;105327;1268;62149;-72
2022/04/11 01:34:09;;;;;;;15.70;11.20;;;;;;;2.47;100.00;99182.23;105290;1268;61992;-72
2022/04/11 01:36:36;;;;;;;19.40;14.30;;;;;;;2.48;100.00;99179.56;105296;1268;75911;-72
2022/04/11 01:39:03;;;;;;;15.70;12.10;;;;;;;2.50;100.00;99185.83;105047;1269;62067;-72
2022/04/11 01:41:29;;;;;;;14.50;11.00;;;;;;;2.49;100.00;99188.65;105301;1268;72631;-71
2022/04/11 01:43:56;;;;;;;18.30;12.80;;;;;;;2.51;100.00;99194.57;105328;1268;62150;-72
2022/04/11 01:46:22;;;;;;;18.30;13.20;;;;;;;2.52;100.00;99197.70;105369;1268;62181;-71
2022/04/11 01:48:49;;;;;;;19.30;14.10;;;;;;;2.51;100.00;99199.98;105343;1267;62089;-70
2022/04/11 01:51:15;;;;;;;19.90;13.60;;;;;;;2.50;100.00;99202.51;105325;1268;62062;-70
2022/04/11 01:53:42;;;;;;;19.20;14.00;;;;;;;2.48;100.00;99201.50;105342;1268;62160;-71
2022/04/11 01:56:08;;;;;;;20.60;14.80;;;;;;;2.46;100.00;99205.58;105006;1271;62239;-72
2022/04/11 01:58:35;;;;;;;19.20;13.50;;;;;;;2.44;100.00;99206.55;105328;1268;62079;-71
2022/04/11 02:01:02;;;;;;;21.80;14.90;;;;;;;2.39;100.00;99207.53;105041;1268;62103;-71
2022/04/11 02:03:29;;;;;;;19.10;15.20;;;;;;;2.36;100.00;99210.45;105332;1268;70813;-72
2022/04/11 02:05:56;;;;;;;21.70;15.50;;;;;;;2.34;100.00;99206.30;104986;1271;72347;-70
2022/04/11 02:08:23;;;;;;;23.60;16.80;;;;;;;2.31;100.00;99211.82;105338;1268;62142;-71
2022/04/11 02:10:49;;;;;;;20.60;16.30;;;;;;;2.29;100.00;99211.01;105337;1268;62067;-72
2022/04/11 02:13:16;;;;;;;22.90;15.90;;;;;;;2.26;100.00;99210.39;105325;1269;62164;-71
2022/04/11 02:15:42;;;;;;;24.90;16.40;;;;;;;2.22;100.00;99208.42;105057;1271;62160;-73
2022/04/11 02:18:09;;;;;;;22.30;15.70;;;;;;;2.17;100.00;99211.89;105362;1268;62183;-71
2022/04/11 02:20:35;;;;;;;25.40;17.90;;;;;;;2.12;100.00;99217.81;105301;1268;62183;-71
2022/04/11 02:23:02;;;;;;;23.70;16.20;;;;;;;2.08;100.00;99222.30;105322;1268;62029;-72
2022/04/11 02:25:32;;;;;;;25.30;15.30;;;;;;;2.07;100.00;99222.35;105315;1268;77358;-71
2022/04/11 02:27:59;;;;;;;19.40;15.30;;;;;;;2.07;100.00;99225.31;105321;1268;69075;-71
2022/04/11 02:30:27;;;;;;;19.60;13.70;;;;;;;2.06;100.00;99223.26;105290;1268;71274;-71
2022/04/11 02:32:55;;;;;;;22.90;15.00;;;;;;;2.05;100.00;99231.33;104996;1269;62227;-71
2022/04/11 02:35:22;;;;;;;20.20;14.00;;;;;;;2.02;100.00;99230.91;105371;1268;62066;-72
2022/04/11 02:37:49;;;;;;;20.50;14.40;;;;;;;2.02;100.00;99232.81;105362;1268;76463;-71
2022/04/11 02:40:16;;;;;;;19.80;13.90;;;;;;;2.02;100.00;99233.17;105365;1268;69332;-74
2022/04/11 02:42:44;;;;;;;21.10;15.70;;;;;;;2.03;100.00;99234.92;105330;1268;74396;-71
2022/04/11 02:45:13;;;;;;;22.10;16.50;;;;;;;2.04;100.00;99234.16;105026;1271;62283;-72
2022/04/11 02:47:40;;;;;;;24.60;18.30;;;;;;;2.06;100.00;99235.86;105426;1268;62134;-71
2022/04/11 02:50:07;;;;;;;21.60;15.10;;;;;;;2.09;100.00;99235.95;105066;1271;77031;-71
2022/04/11 02:52:34;;;;;;;23.00;14.10;;;;;;;2.12;100.00;99235.52;105377;1268;70532;-71
2022/04/11 02:55:01;;;;;;;21.90;15.00;;;;;;;2.16;100.00;99239.42;105298;1268;75001;-73
2022/04/11 02:57:29;;;;;;;23.10;15.50;;;;;;;2.18;100.00;99242.16;105322;1268;62095;-71
2022/04/11 02:59:56;;;;;;;20.10;13.40;;;;;;;2.20;100.00;99244.72;105295;1268;62063;-70
2022/04/11 03:02:23;;;;;;;21.40;13.90;;;;;;;2.23;100.00;99245.02;105371;1268;75900;-70
2022/04/11 03:04:50;;;;;;;18.20;13.10;;;;;;;2.27;100.00;99246.15;105348;1268;69152;-72
2022/04/11 03:07:17;;;;;;;16.80;12.60;;;;;;;2.29;100.00;99249.40;105300;1268;72199;-72
2022/04/11 03:09:43;;;;;;;19.30;13.30;;;;;;;2.31;100.00;99243.90;105312;1268;62094;-72
2022/04/11 03:12:10;;;;;;;24.70;14.50;;;;;;;2.33;100.00;99244.58;105364;1267;62060;-70
2022/04/11 03:14:36;;;;;;;16.40;13.20;;;;;;;2.33;100.00;99248.59;105357;1268;75324;-72
2022/04/11 03:17:03;;;;;;;19.90;13.10;;;;;;;2.33;100.00;99247.70;105364;1268;62376;-71
2022/04/11 03:19:30;;;;;;;16.70;12.70;;;;;;;2.34;100.00;99249.61;105081;1268;73222;-73
2022/04/11 03:21:56;;;;;;;18.80;13.40;;;;;;;2.34;100.00;99249.44;105334;1268;62282;-72
2022/04/11 03:24:23;;;;;;;20.90;13.20;;;;;;;2.34;100.00;99250.49;105379;1268;62056;-71
2022/04/11 03:26:49;;;;;;;18.60;12.00;;;;;;;2.34;100.00;99250.14;105317;1268;62016;-73
2022/04/11 03:29:16;;;;;;;20.20;12.40;;;;;;;2.34;100.00;99255.40;105378;1268;62154;-71
2022/04/11 03:31:42;;;;;;;19.70;13.80;;;;;;;2.33;100.00;99254.36;105340;1268;62179;-73
2022/04/11 03:34:09;;;;;;;18.60;13.50;;;;;;;2.33;100.00;99257.86;105361;1268;62053;-73
2022/04/11 03:36:35;;;;;;;15.50;11.60;;;;;;;2.34;100.00;99258.73;105019;1271;62076;-71
2022/04/11 03:39:02;;;;;;;17.80;12.30;;;;;;;2.35;100.00;99260.29;105334;1268;62118;-72
2022/04/11 03:41:29;;;;;;;17.90;11.00;;;;;;;2.36;100.00;99258.66;105049;1268;62280;-73
2022/04/11 03:43:55;;;;;;;18.00;11.20;;;;;;;2.36;100.00;99265.48;105370;1268;73443;-71
2022/04/11 03:46:22;;;;;;;14.30;10.20;;;;;;;2.36;100.00;99265.30;105384;1268;62069;-73
2022/04/11 03:48:48;;;;;;;16.30;10.90;;;;;;;2.36;100.00;99266.89;105392;1268;62180;-70
2022/04/11 03:51:15;;;;;;;15.60;11.70;;;;;;;2.35;100.00;99265.36;105362;1268;62035;-73
2022/04/11 03:53:42;;;;;;;17.20;12.40;;;;;;;2.34;100.00;99266.62;105383;1268;62520;-71
2022/04/11 03:56:08;;;;;;;18.30;12.20;;;;;;;2.34;100.00;99269.23;105330;1268;72422;-71
2022/04/11 03:58:35;;;;;;;18.00;12.90;;;;;;;2.34;100.00;99276.61;105372;1268;62518;-72
2022/04/11 04:01:01;;;;;;;18.60;13.20;;;;;;;2.34;100.00;99278.89;105340;1268;62069;-72
2022/04/11 04:03:28;;;;;;;18.60;13.40;;;;;;;2.34;100.00;99277.83;105345;1268;77130;-73
2022/04/11 04:05:54;;;;;;;20.90;14.00;;;;;;;2.33;100.00;99278.05;105352;1268;62027;-72
2022/04/11 04:08:21;;;;;;;18.60;12.20;;;;;;;2.35;100.00;99283.27;105353;1268;73353;-71
2022/04/11 04:10:48;;;;;;;18.40;12.90;;;;;;;2.34;100.00;99287.83;105320;1268;62102;-75
2022/04/11 04:13:16;;;;;;;18.20;12.70;;;;;;;2.34;100.00;99285.55;105360;1268;62096;-73
2022/04/11 04:15:43;;;;;;;21.40;13.70;;;;;;;2.33;100.00;99289.42;105508;1268;76848;-70
2022/04/11 04:18:11;;;;;;;20.10;12.50;;;;;;;2.34;100.00;99296.25;105068;1271;68203;-70
2022/04/11 04:20:41;;;;;;;17.00;11.40;;;;;;;2.33;100.00;99294.16;105364;1267;74565;-70
2022/04/11 04:23:07;;;;;;;14.20;12.10;;;;;;;2.32;100.00;99298.93;105324;1268;62114;-70
2022/04/11 04:25:35;;;;;;;17.60;11.90;;;;;;;2.31;100.00;99301.77;105344;1268;62136;-70
2022/04/11 04:28:02;;;;;;;18.70;11.90;;;;;;;2.30;100.00;99301.45;105363;1268;76139;-71
2022/04/11 04:30:29;;;;;;;17.40;12.40;;;;;;;2.28;100.00;99303.07;105428;1268;68691;-72
2022/04/11 04:32:57;;;;;;;16.00;10.50;;;;;;;2.26;100.00;99304.37;104601;1268;1003449;-71
2022/04/11 04:35:24;;;;;;;16.50;12.40;;;;;;;2.25;100.00;99309.32;105371;1268;62071;-70
2022/04/11 04:37:52;;;;;;;13.60;11.10;;;;;;;2.25;100.00;99310.16;105405;1268;62149;-72
2022/04/11 04:40:19;;;;;;;16.30;13.20;;;;;;;2.26;100.00;99312.42;105285;1268;76173;-71
2022/04/11 04:42:46;;;;;;;20.70;15.10;;;;;;;2.27;100.00;99318.19;104974;1268;69163;-71
2022/04/11 04:45:12;;;;;;;23.30;16.00;;;;;;;2.29;100.00;99320.77;105296;1268;73506;-73
2022/04/11 04:47:40;;;;;;;20.00;15.70;;;;;;;2.33;100.00;99323.45;105634;1268;62119;-73
2022/04/11 04:50:07;;;;;;;20.20;15.60;;;;;;;2.39;100.00;99328.88;105827;1268;61981;-72
2022/04/11 04:52:34;;;;;;;20.60;14.80;;;;;;;2.44;100.00;99331.92;105642;1268;78462;-74
2022/04/11 04:55:00;;;;;;;17.50;13.70;;;;;;;2.48;100.00;99329.86;105733;1268;62071;-77
2022/04/11 04:57:27;;;;;;;19.90;14.80;;;;;;;2.53;100.00;99330.77;105572;1267;72999;-78
2022/04/11 04:59:53;;;;;;;16.60;13.40;;;;;;;2.60;100.00;99333.73;105345;1269;62177;-78
2022/04/11 05:02:20;;;;;;;21.00;15.40;;;;;;;2.64;100.00;99338.67;105518;1268;62095;-78
2022/04/11 05:04:46;;;;;;;21.90;15.70;;;;;;;2.66;100.00;99339.70;105193;1268;62060;-78
2022/04/11 05:07:13;;;;;;;18.60;13.80;;;;;;;2.64;100.00;99340.62;105574;1267;70721;-81
2022/04/11 05:09:40;;;;;;;20.00;14.90;;;;;;;2.65;100.00;99339.89;105845;1268;62158;-76
2022/04/11 05:12:06;;;;;;;20.00;14.00;;;;;;;2.89;100.00;99340.41;105352;1268;62591;-77
2022/04/11 05:14:33;;;;;;;17.30;14.30;;;;;;;3.04;100.00;99348.91;105367;1268;62066;-76
2022/04/11 05:16:59;;;;;;;20.90;16.30;;;;;;;3.66;100.00;99341.84;105355;1268;77301;-79
2022/04/11 05:19:26;;;;;;;23.80;16.40;;;;;;;4.28;100.00;99340.08;105417;1268;62079;-69
2022/04/11 05:21:52;;;;;;;19.10;14.90;;;;;;;4.83;100.00;99341.91;105651;1268;62181;-72
2022/04/11 05:24:19;;;;;;;20.20;14.40;;;;;;;5.28;100.00;99344.05;105450;1267;62155;-76
2022/04/11 05:26:45;;;;;;;16.40;14.30;;;;;;;5.65;100.00;99343.77;105411;1268;62156;-72
2022/04/11 05:29:12;;;;;;;14.40;12.60;;;;;;;6.06;100.00;99347.38;105347;1268;62182;-72
2022/04/11 05:31:38;;;;;;;15.00;11.40;;;;;;;6.46;100.00;99350.93;105389;1268;62101;-72
2022/04/11 05:34:05;;;;;;;15.60;10.30;;;;;;;6.89;100.00;99355.52;105360;1268;62178;-71
2022/04/11 05:36:32;;;;;;;14.30;10.70;;;;;;;6.93;100.00;99351.09;105363;1268;62113;-72
2022/04/11 05:38:58;;;;;;;11.40;9.10;;;;;;;6.57;100.00;99351.85;105388;1268;62138;-72
2022/04/11 05:41:26;;;;;;;13.60;10.00;;;;;;;6.25;100.00;99357.48;105372;1268;76686;-71
2022/04/11 05:43:53;;;;;;;11.40;9.10;;;;;;;5.88;100.00;99356.23;105443;1268;69590;-71
2022/04/11 05:46:19;;;;;;;12.00;9.50;;;;;;;5.47;100.00;99359.82;105379;1268;73260;-71
2022/04/11 05:48:46;;;;;;;9.50;8.40;;;;;;;5.34;100.00;99365.82;105454;1268;62097;-71
2022/04/11 05:51:12;;;;;;;12.50;9.10;;;;;;;5.53;100.00;99360.65;105436;1268;62088;-72
2022/04/11 05:53:40;;;;;;;8.80;8.00;;;;;;;5.94;100.00;99357.05;105429;1267;76981;-72
2022/04/11 05:56:07;;;;;;;12.10;8.20;;;;;;;6.29;100.00;99356.45;105391;1268;69307;-72
2022/04/11 05:58:34;;;;;;;10.90;8.70;;;;;;;6.46;100.00;99361.33;105235;1268;74412;-72
2022/04/11 06:01:00;;;;;;;9.70;8.50;;;;;;;6.61;100.00;99360.12;105440;1268;62086;-72
2022/04/11 06:03:28;;;;;;;9.80;7.40;;;;;;;6.82;100.00;99355.27;105427;1267;62174;-72
2022/04/11 06:05:54;;;;;;;10.80;7.40;;;;;;;7.01;100.00;99357.41;105119;1268;74207;-72
2022/04/11 06:08:21;;;;;;;8.20;6.60;;;;;;;7.23;99.61;99357.24;105406;1268;70288;-72
2022/04/11 06:10:47;;;;;;;10.10;7.60;;;;;;;7.21;98.73;99354.35;105119;1268;62156;-72
2022/04/11 06:13:14;;;;;;;7.20;6.10;;;;;;;7.18;98.72;99350.61;105418;1268;62075;-71
2022/04/11 06:15:40;;;;;;;10.30;7.40;;;;;;;7.27;99.45;99344.02;105387;1268;61982;-72
2022/04/11 06:18:07;;;;;;;9.60;7.00;;;;;;;7.45;99.64;99340.84;105302;1268;61621;-72
2022/04/11 06:20:33;;;;;;;8.70;6.20;;;;;;;7.59;99.33;99336.98;105258;1268;62069;-72
2022/04/11 06:23:00;;;;;;;11.30;6.30;;;;;;;7.72;98.83;99334.05;105353;1268;62164;-72
2022/04/11 06:25:27;;;;;;;6.30;5.40;;;;;;;7.88;99.09;99333.75;105372;1268;62066;-71
2022/04/11 06:27:53;;;;;;;8.20;6.20;;;;;;;8.03;98.43;99337.06;105359;1267;61961;-72
2022/04/11 06:30:20;;;;;;;7.10;6.00;;;;;;;8.10;98.12;99337.05;105380;1267;75935;-73
2022/04/11 06:32:46;;;;;;;8.90;5.70;;;;;;;8.10;97.31;99331.60;105373;1268;62046;-71
2022/04/11 06:35:13;;;;;;;7.20;5.40;;;;;;;8.12;96.98;99330.05;105398;1268;62098;-72
2022/04/11 06:37:39;;;;;;;8.40;5.10;;;;;;;8.10;97.19;99335.12;105099;1268;62046;-72
2022/04/11 06:40:07;;;;;;;7.70;6.00;;;;;;;8.15;97.53;99337.17;105423;1268;62034;-72
2022/04/11 06:42:34;;;;;;;7.20;5.40;;;;;;;8.12;97.65;99335.37;105408;1268;76080;-71
2022/04/11 06:45:01;;;;;;;6.60;4.60;;;;;;;7.92;96.58;99346.80;105426;1268;67849;-71
2022/04/11 06:47:27;;;;;;;7.10;4.70;;;;;;;7.50;95.73;99357.39;105369;1268;72210;-74
2022/04/11 06:49:54;;;;;;;9.30;5.50;;;;;;;7.18;96.07;99358.56;105409;1268;62293;-72
2022/04/11 06:52:20;;;;;;;8.60;4.90;;;;;;;7.08;96.82;99359.23;105388;1268;62149;-69
2022/04/11 06:54:47;;;;;;;8.40;5.80;;;;;;;7.10;96.95;99363.40;105395;1268;62092;-73
2022/04/11 06:57:13;;;;;;;9.50;5.80;;;;;;;7.07;96.19;99362.96;105367;1268;62491;-72
2022/04/11 06:59:40;;;;;;;8.80;5.50;;;;;;;6.90;94.99;99368.38;105388;1268;62087;-73
2022/04/11 07:02:07;;;;;;;15.90;5.50;;;;;;;6.92;95.91;99364.73;105364;1268;62093;-74
2022/04/11 07:04:34;;;;;;;7.10;5.10;;;;;;;7.01;96.30;99361.28;105431;1267;61937;-72
2022/04/11 07:07:00;;;;;;;8.70;5.50;;;;;;;6.92;96.64;99364.71;105377;1268;75928;-72
2022/04/11 07:09:27;;;;;;;8.80;6.00;;;;;;;6.86;97.18;99366.95;105161;1268;62174;-72
2022/04/11 07:11:54;;;;;;;10.70;6.80;;;;;;;6.77;97.25;99368.09;105324;1269;73467;-72
2022/04/11 07:14:21;;;;;;;11.40;6.40;;;;;;;6.70;96.75;99369.29;105375;1268;62171;-71
2022/04/11 07:16:48;;;;;;;9.60;6.90;;;;;;;6.71;96.69;99367.80;105382;1267;62126;-72
2022/04/11 07:19:15;;;;;;;9.20;6.40;;;;;;;6.93;97.00;99365.04;105396;1268;76227;-71
2022/04/11 07:21:42;;;;;;;10.10;6.10;;;;;;;7.22;96.53;99368.66;105186;1268;62130;-71
2022/04/11 07:24:09;;;;;;;8.90;8.00;;;;;;;7.26;95.71;99361.92;105395;1268;73169;-72
2022/04/11 07:26:35;;;;;;;12.60;7.80;;;;;;;7.20;95.83;99362.38;105367;1268;62063;-73
2022/04/11 07:29:02;;;;;;;10.20;8.10;;;;;;;7.19;96.14;99364.56;105392;1268;62202;-73
2022/04/11 07:31:29;;;;;;;10.40;8.70;;;;;;;7.27;95.92;99363.48;105355;1268;62110;-72
2022/04/11 07:33:55;;;;;;;12.70;9.00;;;;;;;7.32;94.91;99369.91;105478;1268;69282;-73
2022/04/11 07:36:22;;;;;;;14.20;10.70;;;;;;;7.23;94.10;99365.56;105426;1268;74486;-72
2022/04/11 07:38:49;;;;;;;11.20;10.00;;;;;;;7.33;95.42;99365.09;105412;1268;62004;-73
2022/04/11 07:41:15;;;;;;;10.20;9.00;;;;;;;7.71;96.18;99364.67;105455;1268;62149;-72
2022/04/11 07:43:42;;;;;;;10.20;8.70;;;;;;;8.16;95.45;99360.33;105161;1268;76254;-72
2022/04/11 07:46:08;;;;;;;9.70;8.70;;;;;;;8.50;94.80;99361.42;105200;1268;70630;-72
2022/04/11 07:48:35;;;;;;;9.50;7.90;;;;;;;8.83;94.93;99357.52;105443;1268;62222;-72
2022/04/11 07:51:01;;;;;;;8.70;6.60;;;;;;;9.17;93.88;99356.58;105428;1268;62141;-72
2022/04/11 07:53:28;;;;;;;8.80;6.10;;;;;;;9.19;92.84;99357.11;105458;1267;61991;-72
2022/04/11 07:55:55;;;;;;;9.40;7.10;;;;;;;9.08;92.33;99357.44;105426;1268;62147;-70
2022/04/11 07:58:21;;;;;;;9.40;6.90;;;;;;;8.97;92.31;99357.28;105432;1268;70445;-72
2022/04/11 08:00:52;;;;;;;8.60;5.40;;;;;;;8.84;92.12;99358.90;105198;1270;72669;-72
2022/04/11 08:03:20;;;;;;;6.60;5.10;;;;;;;8.80;91.97;99363.20;105425;1268;62170;-71
2022/04/11 08:05:46;;;;;;;5.40;4.90;;;;;;;8.69;91.67;99366.95;105630;1268;62170;-71
2022/04/11 08:08:14;;;;;;;8.90;4.60;;;;;;;8.48;91.23;99368.42;105418;1268;77243;-73
2022/04/11 08:10:41;;;;;;;7.80;5.00;;;;;;;8.40;90.93;99366.92;105437;1268;69176;-71
2022/04/11 08:13:08;;;;;;;7.10;4.70;;;;;;;8.34;90.55;99367.34;105424;1268;71798;-73
2022/04/11 08:15:35;;;;;;;8.10;4.50;;;;;;;8.19;90.63;99372.39;105385;1268;62046;-71
2022/04/11 08:18:01;;;;;;;6.10;3.60;;;;;;;7.93;91.04;99375.27;105399;1268;62078;-73
2022/04/11 08:20:28;;;;;;;4.50;3.10;;;;;;;7.66;91.15;99379.80;105441;1268;76028;-72
2022/04/11 08:22:55;;;;;;;5.50;3.40;;;;;;;7.39;90.50;99385.89;105306;1269;70202;-70
2022/04/11 08:25:22;;;;;;;5.40;3.30;;;;;;;7.07;90.25;99388.95;105382;1268;74394;-70
2022/04/11 08:27:48;;;;;;;6.50;3.20;;;;;;;6.75;90.93;99388.98;105379;1268;62184;-72
2022/04/11 08:30:15;;;;;;;4.80;2.40;;;;;;;6.50;91.25;99388.14;105374;1268;62058;-73
2022/04/11 08:32:45;;;;;;;5.70;3.10;;;;;;;6.39;91.74;99395.36;105150;1268;76999;-72
2022/04/11 08:35:13;;;;;;;5.50;3.60;;;;;;;6.44;92.20;99396.55;105465;1268;70111;-72
2022/04/11 08:37:40;;;;;;;8.50;4.00;;;;;;;6.59;92.08;99393.93;105365;1268;73310;-72
2022/04/11 08:40:10;;;;;;;7.50;5.10;;;;;;;6.89;91.68;99390.64;105411;1268;62062;-72
2022/04/11 08:42:39;;;;;;;4.70;4.20;;;;;;;7.26;91.73;99385.39;105529;1268;62045;-72
2022/04/11 08:45:06;;;;;;;6.20;3.70;;;;;;;7.58;90.04;99381.95;105471;1268;75703;-72
2022/04/11 08:47:34;;;;;;;5.00;3.60;;;;;;;7.72;88.49;99383.23;105404;1267;69131;-72
2022/04/11 08:50:03;;;;;;;5.30;3.10;;;;;;;7.87;87.83;99379.63;105425;1268;74129;-72
2022/04/11 08:52:31;;;;;;;3.60;2.10;;;;;;;8.07;87.83;99379.53;105591;1268;62040;-72
2022/04/11 08:54:59;;;;;;;3.50;2.30;;;;;;;8.21;86.02;99372.09;105392;1268;62209;-71
2022/04/11 08:57:25;;;;;;;4.90;2.40;;;;;;;8.17;86.69;99378.30;105391;1267;75931;-71
2022/04/11 08:59:52;;;;;;;2.90;2.00;;;;;;;8.23;87.03;99376.41;105411;1267;62159;-72
2022/04/11 09:02:18;;;;;;;6.30;2.80;;;;;;;8.60;88.81;99369.70;105355;1267;62086;-72
2022/04/11 09:04:56;;;;;;;7.30;2.50;;;;;;;8.97;87.32;99374.17;105339;1268;62008;-72
2022/04/11 09:07:24;;;;;;;8.10;3.20;;;;;;;9.22;86.99;99374.55;105377;1268;61971;-72
2022/04/11 09:09:51;;;;;;;5.50;2.50;;;;;;;9.30;86.03;99371.95;105437;1268;77136;-69
2022/04/11 09:12:19;;;;;;;5.00;3.00;;;;;;;9.19;85.74;99370.11;105351;1268;69262;-74
2022/04/11 09:14:55;;;;;;;4.70;2.70;;;;;;;9.09;86.28;99375.64;105399;1267;72571;-72
2022/04/11 09:17:25;;;;;;;4.30;1.70;;;;;;;9.04;87.02;99372.17;105411;1268;62234;-72
2022/04/11 09:20:10;;;;;;;5.80;2.30;;;;;;;8.88;85.39;99375.16;105358;1268;62071;-72
2022/04/11 09:22:40;;;;;;;6.70;2.40;;;;;;;8.67;86.32;99375.05;105564;1268;75872;-71
2022/04/11 09:25:14;;;;;;;11.90;2.70;;;;;;;8.48;84.75;99370.70;105465;1268;70484;-72
2022/04/11 09:27:42;;;;;;;4.00;2.10;;;;;;;8.18;85.96;99377.02;105394;1268;73145;-72
2022/04/11 09:30:27;;;;;;;9.80;2.20;;;;;;;8.24;86.39;99376.20;105107;1268;62270;-71
2022/04/11 09:33:14;;;;;;;4.30;1.90;;;;;;;8.25;86.13;99371.70;105468;1268;62036;-72
2022/04/11 09:35:45;;;;;;;9.00;2.90;;;;;;;8.49;87.52;99370.52;105396;1267;77588;-72
2022/04/11 09:38:18;;;;;;;;;;;;;;;8.96;87.66;99369.95;105400;1267;68998;-71
2022/04/11 09:40:50;;;;;;;7.00;3.10;;;;;;;9.33;86.32;99367.40;105323;1268;74230;-71
2022/04/11 09:43:26;;;;;;;3.50;1.60;;;;;;;9.62;84.10;99369.62;105392;1268;62056;-72
2022/04/11 09:45:53;;;;;;;3.60;1.40;;;;;;;9.58;82.19;99364.34;105456;1268;62140;-73
2022/04/11 09:48:25;;;;;;;3.70;1.50;;;;;;;9.72;83.15;99360.41;105389;1268;75986;-71
2022/04/11 09:50:53;;;;;;;4.10;1.50;;;;;;;10.00;83.28;99358.05;105383;1268;69253;-73
2022/04/11 09:53:23;;;;;;;4.40;2.30;;;;;;;10.12;82.34;99357.16;105509;1268;70598;-72
2022/04/11 09:55:52;;;;;;;3.30;1.60;;;;;;;10.08;80.36;99353.14;105395;1268;62172;-71
2022/04/11 09:58:21;;;;;;;3.70;1.80;;;;;;;9.94;76.79;99344.90;105556;1268;62052;-73
2022/04/11 10:00:50;;;;;;;2.50;1.40;;;;;;;9.85;77.94;99347.52;105447;1268;76963;-72
2022/04/11 10:03:20;;;;;;;3.20;1.80;;;;;;;9.92;78.64;99343.45;105457;1268;69135;-72
2022/04/11 10:05:47;;;;;;;1.70;1.50;;;;;;;9.94;77.42;99345.64;105438;1268;73370;-72
2022/04/11 10:08:14;;;;;;;3.30;2.00;;;;;;;9.85;76.83;99342.55;105482;1268;62069;-71
2022/04/11 10:10:42;;;;;;;4.50;2.00;;;;;;;9.88;76.92;99348.45;105361;1268;62177;-71
2022/04/11 10:13:15;;;;;;;8.20;2.90;;;;;;;10.01;76.89;99347.70;105134;1268;76013;-71
2022/04/11 10:15:49;;;;;;;4.20;2.10;;;;;;;9.94;73.96;99350.05;105413;1268;69114;-73
2022/04/11 10:18:19;;;;;;;4.60;2.20;;;;;;;9.62;73.93;99350.64;105419;1268;74680;-72
2022/04/11 10:20:50;;;;;;;5.90;2.00;;;;;;;9.26;74.36;99352.89;105382;1268;62161;-72
2022/04/11 10:23:55;;;;;;;4.50;2.10;;;;;;;8.98;76.06;99356.70;105386;1268;61937;-72
2022/04/11 10:26:30;;;;;;;3.10;1.90;;;;;;;8.98;76.72;99355.29;104890;1277;76050;-72
2022/04/11 10:28:57;;;;;;;4.00;1.60;;;;;;;9.08;76.80;99360.93;104876;1277;69172;-71
2022/04/11 10:31:35;;;;;;;3.70;1.80;;;;;;;9.13;77.74;99356.26;104526;1277;71713;-71
2022/04/11 10:34:02;;;;;;;3.40;1.70;;;;;;;9.42;78.19;99354.11;104774;1277;62220;-72
2022/04/11 10:36:34;;;;;;;3.70;2.20;;;;;;;9.64;77.49;99349.31;104907;1277;62053;-72
2022/04/11 10:39:13;;;;;;;3.60;1.80;;;;;;;9.94;78.65;99343.30;104898;1277;76988;-72
2022/04/11 10:41:58;;;;;;;3.40;1.80;;;;;;;10.37;77.21;99341.11;104866;1277;69388;-72
2022/04/11 10:44:32;;;;;;;4.50;2.50;;;;;;;10.87;76.40;99337.37;104929;1277;73218;-71
2022/04/11 10:47:08;;;;;;;4.80;2.50;;;;;;;11.29;76.00;99335.21;104844;1277;62190;-71
2022/04/11 10:49:50;;;;;;;6.00;3.00;;;;;;;11.56;76.08;99331.71;104569;1277;62128;-72
2022/04/11 10:52:41;;;;;;;4.20;1.80;;;;;;;11.67;74.88;99330.25;104845;1275;76858;-72
2022/04/11 10:55:11;;;;;;;3.60;2.10;;;;;;;11.24;73.60;99330.90;104864;1277;67709;-72
2022/04/11 10:57:50;;;;;;;4.30;1.80;;;;;;;10.68;73.50;99342.45;104877;1277;73284;-72
2022/04/11 11:00:35;;;;;;;1.80;1.20;;;;;;;9.93;72.06;99348.86;104855;1277;62117;-72
2022/04/11 11:03:02;;;;;;;2.20;1.40;;;;;;;9.18;72.44;99352.27;104914;1271;62094;-72
2022/04/11 11:05:38;;;;;;;2.80;1.50;;;;;;;8.89;73.09;99352.39;105292;1271;75977;-71
2022/04/11 11:08:11;;;;;;;3.60;1.90;;;;;;;8.90;73.89;99344.20;105299;1271;69325;-71
2022/04/11 11:10:54;;;;;;;3.20;1.80;;;;;;;8.99;73.93;99344.77;105323;1271;71546;-72
2022/04/11 11:13:36;;;;;;;3.10;2.10;;;;;;;9.10;73.83;99351.09;105247;1271;61976;-70
2022/04/11 11:16:11;;;;;;;2.30;1.60;;;;;;;9.22;73.69;99351.10;105281;1268;62021;-71
2022/04/11 11:21:14;;;;;;;3.20;2.30;;;;;;;9.33;73.34;99346.80;105312;1268;70265;-72
2022/04/11 11:23:40;;;;;;;4.10;2.80;;;;;;;9.37;73.47;99346.42;105304;1268;62087;-72
2022/04/11 11:26:12;;;;;;;3.70;2.40;;;;;;;9.50;73.91;99347.62;105295;1268;62184;-72